createdAt,value
2022-12-22T00:00:02.006Z,95.36
2022-12-22T00:05:02.048Z,98.21
2022-12-22T00:10:01.409Z,98.21
2022-12-22T00:20:02.354Z,97.91
2022-12-22T00:25:01.876Z,98
2022-12-22T00:30:01.998Z,98.05
2022-12-22T00:35:02.083Z,98.13
2022-12-22T00:40:01.597Z,98.08
2022-12-22T00:45:01.595Z,97.98
2022-12-22T00:50:01.999Z,97.97
2022-12-22T00:55:01.831Z,97.89
2022-12-22T01:00:02.214Z,97.95
2022-12-22T01:05:02.027Z,97.77
2022-12-22T01:10:01.745Z,97.81
2022-12-22T01:15:01.637Z,97.82
2022-12-22T01:20:01.725Z,97.99
2022-12-22T01:25:02.128Z,97.44
2022-12-22T01:30:02.059Z,98.4
2022-12-22T01:35:01.387Z,96.39
2022-12-22T01:40:02.029Z,98.66
2022-12-22T01:45:02.178Z,96.34
2022-12-22T01:50:01.315Z,98.71
2022-12-22T01:55:01.305Z,96.27
2022-12-22T02:00:01.611Z,98.74
2022-12-22T02:05:02.216Z,96.32
2022-12-22T02:10:01.346Z,98.73
2022-12-22T02:15:01.920Z,99.65
2022-12-22T02:20:02.259Z,98.35
2022-12-22T02:25:01.688Z,98.42
2022-12-22T02:30:01.642Z,99.01
2022-12-22T02:35:01.901Z,99.36
2022-12-22T02:40:02.176Z,99.4
2022-12-22T02:45:02.113Z,99.28
2022-12-22T02:50:02.181Z,99.13
2022-12-22T02:55:02.163Z,99.34
2022-12-22T03:00:02.144Z,99.37
2022-12-22T03:05:01.929Z,99.59
2022-12-22T03:10:02.114Z,100.08
2022-12-22T03:15:02.077Z,99.92
2022-12-22T03:20:01.902Z,100.1
2022-12-22T03:25:02.051Z,100.48
2022-12-22T03:30:02.078Z,100.85
2022-12-22T03:35:01.486Z,101.12
2022-12-22T03:40:02.168Z,101.19
2022-12-22T03:45:02.147Z,101.23
2022-12-22T03:50:01.765Z,101.36
2022-12-22T03:55:02.233Z,101.46
2022-12-22T04:00:02.277Z,101.63
2022-12-22T04:05:02.254Z,101.55
2022-12-22T04:10:01.575Z,101.68
2022-12-22T04:15:01.962Z,101.5
2022-12-22T04:20:02.215Z,101.43
2022-12-22T04:25:01.747Z,101.4
2022-12-22T04:30:01.432Z,101.09
2022-12-22T04:35:01.478Z,101.07
2022-12-22T04:40:01.711Z,101.02
2022-12-22T04:45:01.463Z,100.72
2022-12-22T04:50:01.656Z,100.03
2022-12-22T04:55:01.661Z,100.02
2022-12-22T05:00:02.239Z,99.85
2022-12-22T05:05:01.928Z,99.67
2022-12-22T05:10:01.980Z,99.77
2022-12-22T05:15:01.942Z,99.79
2022-12-22T05:20:01.840Z,99.66
2022-12-22T05:25:01.989Z,99.64
2022-12-22T05:30:02.160Z,99.39
2022-12-22T05:35:01.908Z,100.04
2022-12-22T05:40:01.682Z,100.2
2022-12-22T05:45:02.084Z,100.77
2022-12-22T05:50:02.221Z,100.78
2022-12-22T05:55:02.945Z,100.98
2022-12-22T06:00:01.682Z,101.37
2022-12-22T06:05:01.860Z,101.36
2022-12-22T06:10:07.779Z,101.52
2022-12-22T06:15:02.063Z,101.8
2022-12-22T06:20:01.863Z,101.65
2022-12-22T06:25:01.916Z,102.11
2022-12-22T06:30:02.106Z,102.14
2022-12-22T06:35:02.105Z,102.09
2022-12-22T06:40:02.082Z,101.88
2022-12-22T06:45:02.001Z,101.5
2022-12-22T06:50:01.541Z,101.64
2022-12-22T06:55:02.226Z,102.04
2022-12-22T07:00:01.986Z,102.37
2022-12-22T07:05:01.693Z,102.44
2022-12-22T07:10:01.977Z,102.43
2022-12-22T07:15:01.564Z,102.49
2022-12-22T07:20:02.064Z,102.55
2022-12-22T07:25:01.455Z,102.7
2022-12-22T07:30:01.882Z,102.88
2022-12-22T07:35:05.684Z,102.78
2022-12-22T07:40:02.235Z,102.76
2022-12-22T07:45:01.764Z,102.68
2022-12-22T07:50:01.733Z,102.68
2022-12-22T08:00:01.582Z,102.8
2022-12-22T08:05:02.313Z,102.8
2022-12-22T08:10:01.347Z,103.02
2022-12-22T08:15:01.591Z,102.87
2022-12-22T08:20:01.554Z,102.87
2022-12-22T08:25:01.934Z,103.03
2022-12-22T08:30:01.499Z,102.95
2022-12-22T08:35:02.128Z,103.2
2022-12-22T08:40:01.780Z,103.05
2022-12-22T08:45:02.234Z,103.29
2022-12-22T08:50:01.906Z,103.29
2022-12-22T08:55:01.697Z,103.44
2022-12-22T09:00:01.439Z,103.46
2022-12-22T09:05:01.922Z,103.52
2022-12-22T09:10:02.167Z,103.48
2022-12-22T09:15:02.114Z,103.57
2022-12-22T09:20:01.881Z,103.6
2022-12-22T09:25:01.534Z,103.65
2022-12-22T09:30:01.945Z,103.66
2022-12-22T09:35:01.758Z,103.68
2022-12-22T09:40:01.491Z,103.62
2022-12-22T09:45:01.472Z,103.71
2022-12-22T09:50:01.513Z,103.52
2022-12-22T09:55:02.110Z,103.57
2022-12-22T10:00:01.403Z,103.59
2022-12-22T10:05:01.857Z,103.64
2022-12-22T10:10:01.786Z,103.54
2022-12-22T10:15:01.944Z,103.49
2022-12-22T10:20:02.129Z,103.49
2022-12-22T10:25:01.879Z,103.39
2022-12-22T10:30:02.235Z,103.39
2022-12-22T10:35:01.556Z,103.35
2022-12-22T10:40:02.237Z,103.25
2022-12-22T10:45:02.188Z,103.02
2022-12-22T10:50:01.724Z,103.1
2022-12-22T10:55:02.144Z,103
2022-12-22T11:00:01.922Z,103.04
2022-12-22T11:05:01.723Z,102.97
2022-12-22T11:10:01.520Z,103.04
2022-12-22T11:15:01.493Z,102.88
2022-12-22T11:20:02.161Z,102.59
2022-12-22T11:25:01.621Z,102.72
2022-12-22T11:30:01.484Z,102.75
2022-12-22T11:35:02.272Z,102.73
2022-12-22T11:40:01.555Z,102.59
2022-12-22T11:45:02.073Z,102.78
2022-12-22T11:50:58.270Z,102.55
2022-12-22T11:55:01.889Z,101.5
2022-12-22T12:00:01.993Z,101.05
2022-12-22T12:05:01.520Z,100.08
2022-12-22T12:10:02.091Z,100.25
2022-12-22T12:15:01.989Z,99.91
2022-12-22T12:20:01.962Z,100.11
2022-12-22T12:25:01.930Z,100.1
2022-12-22T12:30:36.403Z,99.88
2022-12-22T12:35:02.183Z,99.69
2022-12-22T12:40:02.215Z,99.3
2022-12-22T12:45:01.566Z,98.68
2022-12-22T12:50:02.062Z,98.8
2022-12-22T12:55:01.355Z,98.44
2022-12-22T13:00:02.135Z,100.08
2022-12-22T13:05:01.872Z,98.16
2022-12-22T13:10:01.457Z,99.95
2022-12-22T13:15:01.536Z,100.38
2022-12-22T13:20:01.620Z,97.45
2022-12-22T13:25:01.939Z,99.73
2022-12-22T13:30:01.521Z,99.88
2022-12-22T13:35:30.399Z,98.27
2022-12-22T13:40:01.729Z,98.32
2022-12-22T13:45:01.410Z,98.5
2022-12-22T13:50:09.397Z,98.53
2022-12-22T13:55:01.867Z,98.73
2022-12-22T14:00:01.991Z,99.08
2022-12-22T14:05:03.261Z,98.97
2022-12-22T14:10:02.012Z,99.19
2022-12-22T14:15:01.461Z,98.99
2022-12-22T14:20:02.247Z,98.7
2022-12-22T14:25:02.157Z,98.48
2022-12-22T14:30:01.532Z,98.43
2022-12-22T14:35:01.380Z,98.5
2022-12-22T14:40:02.110Z,98.69
2022-12-22T14:45:02.096Z,98.24
2022-12-22T14:50:01.365Z,98.53
2022-12-22T14:55:01.873Z,100.15
2022-12-22T15:00:02.263Z,98.43
2022-12-22T15:05:01.624Z,98.34
2022-12-22T15:10:16.938Z,98.53
2022-12-22T15:15:01.847Z,98.28
2022-12-22T15:20:02.323Z,98.56
2022-12-22T15:25:01.414Z,98.4
2022-12-22T15:30:02.198Z,98.21
2022-12-22T15:35:01.667Z,99.61
2022-12-22T15:40:01.422Z,100.02
2022-12-22T15:45:01.570Z,99.56
2022-12-22T15:50:02.161Z,99.69
2022-12-22T15:55:02.277Z,99.03
2022-12-22T16:00:01.495Z,98.72
2022-12-22T16:05:01.527Z,98.93
2022-12-22T16:10:01.578Z,98.98
2022-12-22T16:15:01.654Z,98.87
2022-12-22T16:20:01.385Z,99.33
2022-12-22T16:25:01.895Z,99.44
2022-12-22T16:30:02.046Z,99.16
2022-12-22T16:35:01.416Z,99.44
2022-12-22T16:40:01.798Z,99.44
2022-12-22T16:45:02.108Z,99.34
2022-12-22T16:50:02.275Z,99.29
2022-12-22T16:55:01.727Z,99.52
2022-12-22T17:00:01.881Z,99.56
2022-12-22T17:05:02.023Z,99.54
2022-12-22T17:10:01.504Z,97.44
2022-12-22T17:15:02.226Z,97.31
2022-12-22T17:20:02.269Z,97.31
2022-12-22T17:25:01.673Z,97.24
2022-12-22T17:30:02.143Z,97.17
2022-12-22T17:35:02.069Z,97.36
2022-12-22T17:40:01.750Z,97
2022-12-22T17:45:02.167Z,97.21
2022-12-22T17:50:01.897Z,98.98
2022-12-22T17:55:01.987Z,99.12
2022-12-22T18:00:02.193Z,99.02
2022-12-22T18:05:01.434Z,99.05
2022-12-22T18:10:01.480Z,98.67
2022-12-22T18:15:01.755Z,98.79
2022-12-22T18:20:01.804Z,98.51
2022-12-22T18:25:02.035Z,98.63
2022-12-22T18:30:01.958Z,98.48
2022-12-22T18:35:01.427Z,98.64
2022-12-22T18:40:01.919Z,98.46
2022-12-22T18:45:01.488Z,98.83
2022-12-22T18:50:02.185Z,98.88
2022-12-22T18:55:01.452Z,99.11
2022-12-22T19:00:04.508Z,99.21
2022-12-22T19:05:01.582Z,99.53
2022-12-22T19:10:01.437Z,99.54
2022-12-22T19:15:01.941Z,98.02
2022-12-22T19:20:02.140Z,98.14
2022-12-22T19:25:02.139Z,100.14
2022-12-22T19:30:04.352Z,98.58
2022-12-22T19:35:02.182Z,98.92
2022-12-22T19:40:01.733Z,99.18
2022-12-22T19:45:08.465Z,99.27
2022-12-22T19:50:01.656Z,99.42
2022-12-22T19:55:02.057Z,99.42
2022-12-22T20:00:01.511Z,99.43
2022-12-22T20:05:01.699Z,99.58
2022-12-22T20:10:02.150Z,99.7
2022-12-22T20:15:01.640Z,99.87
2022-12-22T20:20:02.207Z,100.21
2022-12-22T20:25:01.632Z,100.2
2022-12-22T20:30:01.451Z,100.47
2022-12-22T20:35:01.708Z,100.78
2022-12-22T20:40:01.623Z,100.68
2022-12-22T20:45:04.722Z,100.59
2022-12-22T20:50:02.155Z,100.9
2022-12-22T20:55:01.666Z,100.89
2022-12-22T21:00:01.950Z,101.25
2022-12-22T21:05:01.713Z,101.25
2022-12-22T21:10:01.799Z,101.14
2022-12-22T21:15:02.262Z,101.33
2022-12-22T21:20:01.806Z,101.35
2022-12-22T21:25:02.055Z,101.29
2022-12-22T21:30:02.215Z,101.3
2022-12-22T21:35:07.816Z,101.36
2022-12-22T21:40:02.060Z,101.28
2022-12-22T21:45:01.567Z,101.48
2022-12-22T21:50:02.230Z,101.52
2022-12-22T21:55:01.730Z,101.72
2022-12-22T22:00:01.697Z,101.62
2022-12-22T22:05:01.786Z,101.59
2022-12-22T22:10:01.956Z,101.59
2022-12-22T22:15:01.572Z,101.4
2022-12-22T22:20:02.265Z,101.47
2022-12-22T22:25:01.566Z,101.56
2022-12-22T22:30:02.024Z,101.82
2022-12-22T22:35:01.730Z,101.65
2022-12-22T22:40:01.389Z,101.65
2022-12-22T22:45:01.981Z,101.85
2022-12-22T22:50:02.231Z,102
2022-12-22T22:55:01.992Z,102.01
2022-12-22T23:00:02.343Z,101.89
2022-12-22T23:05:01.916Z,102.04
2022-12-22T23:10:02.234Z,102.03
2022-12-22T23:15:02.256Z,101.79
2022-12-22T23:20:01.694Z,101.78
2022-12-22T23:25:01.514Z,101.72
2022-12-22T23:30:01.435Z,101.9
2022-12-22T23:35:01.351Z,101.96
2022-12-22T23:40:33.236Z,102.04
2022-12-22T23:45:02.202Z,101.95
2022-12-22T23:50:01.417Z,101.96
2022-12-22T23:55:01.701Z,102.22
